DLH1330 EDDF-GMMN
Flight info
| Callsign | DLH1330 |
|---|---|
| Flight time | 3h 21m |
| Altitude | 37000 |
| Route | ANEKI2L ANEKI Y163 HERBI Y164 MOPAN DCT LUTIX/N0443F390 DCT BENOT DCT NEMOS DCT NINTU DCT MEBAK DCT REPSI DCT LERGA DCT MINSO DCT NARAK DCT AGN DCT MAQAB DCT TIVLI N869 GALTO UB11 TUSOR |
| Aircraft | A20N/M-SDE2E3FGIJ1LORWXYZ/HB1 |
Departure
| Time | 2026-05-05 05:42 |
|---|---|
| Airport | Frankfurt Main Airport (EDDF) |
Arrival
| Time | 2026-05-05 09:04 |
|---|---|
| Airport | Mohammed V International Airport (GMMN) |
| Time | Latitude | Longitude | Altitude | Speed | Heading |
|---|---|---|---|---|---|
| 2026-05-05 05:20 | 50.04614 | 8.57199 | 360 ft | 0 kts | 3° |
| 2026-05-05 05:31 | 50.04612 | 8.57198 | 360 ft | 4 kts | 3° |
| 2026-05-05 05:31 | 50.04573 | 8.57196 | 361 ft | 5 kts | 359° |
| 2026-05-05 05:31 | 50.04552 | 8.57199 | 361 ft | 2 kts | 324° |
| 2026-05-05 05:31 | 50.04546 | 8.57213 | 367 ft | 2 kts | 262° |
| 2026-05-05 05:32 | 50.04548 | 8.57230 | 362 ft | 2 kts | 253° |
| 2026-05-05 05:32 | 50.04551 | 8.57245 | 362 ft | 0 kts | 251° |
| 2026-05-05 05:35 | 50.04549 | 8.57235 | 362 ft | 4 kts | 251° |
| 2026-05-05 05:35 | 50.04528 | 8.57144 | 362 ft | 14 kts | 250° |
| 2026-05-05 05:35 | 50.04485 | 8.56970 | 367 ft | 20 kts | 249° |
| 2026-05-05 05:35 | 50.04436 | 8.56758 | 364 ft | 21 kts | 250° |
| 2026-05-05 05:36 | 50.04382 | 8.56538 | 361 ft | 23 kts | 249° |
| 2026-05-05 05:36 | 50.04324 | 8.56290 | 361 ft | 26 kts | 249° |
| 2026-05-05 05:36 | 50.04262 | 8.56034 | 358 ft | 25 kts | 250° |
| 2026-05-05 05:36 | 50.04202 | 8.55780 | 353 ft | 26 kts | 250° |
| 2026-05-05 05:37 | 50.04140 | 8.55522 | 356 ft | 26 kts | 249° |
| 2026-05-05 05:37 | 50.04076 | 8.55254 | 360 ft | 26 kts | 249° |
| 2026-05-05 05:37 | 50.04011 | 8.54986 | 353 ft | 25 kts | 250° |
| 2026-05-05 05:37 | 50.03949 | 8.54715 | 352 ft | 28 kts | 249° |
| 2026-05-05 05:38 | 50.03885 | 8.54456 | 347 ft | 25 kts | 250° |
| 2026-05-05 05:38 | 50.03801 | 8.54222 | 355 ft | 25 kts | 246° |
| 2026-05-05 05:38 | 50.03737 | 8.53961 | 343 ft | 27 kts | 251° |
| 2026-05-05 05:38 | 50.03674 | 8.53698 | 336 ft | 28 kts | 250° |
| 2026-05-05 05:39 | 50.03608 | 8.53431 | 337 ft | 27 kts | 249° |
| 2026-05-05 05:39 | 50.03545 | 8.53165 | 334 ft | 25 kts | 250° |
| 2026-05-05 05:39 | 50.03484 | 8.52917 | 346 ft | 24 kts | 249° |
| 2026-05-05 05:39 | 50.03436 | 8.52736 | 355 ft | 0 kts | 247° |
| 2026-05-05 05:41 | 50.03427 | 8.52701 | 355 ft | 8 kts | 248° |
| 2026-05-05 05:41 | 50.03369 | 8.52595 | 353 ft | 14 kts | 186° |
| 2026-05-05 05:41 | 50.03257 | 8.52597 | 352 ft | 18 kts | 180° |
| 2026-05-05 05:42 | 50.03011 | 8.52599 | 348 ft | 70 kts | 179° |
| 2026-05-05 05:42 | 50.02279 | 8.52604 | 351 ft | 137 kts | 179° |
| 2026-05-05 05:42 | 50.01206 | 8.52625 | 723 ft | 156 kts | 180° |
| 2026-05-05 05:42 | 50.00130 | 8.52643 | 1447 ft | 156 kts | 178° |
| 2026-05-05 05:43 | 49.98996 | 8.52728 | 2010 ft | 171 kts | 176° |
| 2026-05-05 05:43 | 49.97746 | 8.52836 | 2546 ft | 189 kts | 176° |
| 2026-05-05 05:43 | 49.96353 | 8.52948 | 3010 ft | 212 kts | 177° |
| 2026-05-05 05:43 | 49.94819 | 8.53059 | 3619 ft | 227 kts | 178° |
| 2026-05-05 05:44 | 49.93231 | 8.53166 | 4567 ft | 228 kts | 178° |
| 2026-05-05 05:44 | 49.91650 | 8.53272 | 5556 ft | 227 kts | 178° |
| 2026-05-05 05:44 | 49.90070 | 8.53377 | 6515 ft | 228 kts | 178° |
| 2026-05-05 05:44 | 49.88476 | 8.53481 | 7367 ft | 232 kts | 178° |
| 2026-05-05 05:45 | 49.86847 | 8.53588 | 8184 ft | 237 kts | 179° |
| 2026-05-05 05:45 | 49.85187 | 8.53696 | 9035 ft | 241 kts | 179° |
| 2026-05-05 05:45 | 49.83499 | 8.53806 | 9859 ft | 245 kts | 179° |
| 2026-05-05 05:45 | 49.81778 | 8.53919 | 10624 ft | 249 kts | 179° |
| 2026-05-05 05:46 | 49.80043 | 8.54033 | 11418 ft | 251 kts | 179° |
| 2026-05-05 05:46 | 49.78286 | 8.54137 | 12201 ft | 254 kts | 182° |
| 2026-05-05 05:46 | 49.76508 | 8.53955 | 12891 ft | 262 kts | 187° |
| 2026-05-05 05:46 | 49.74617 | 8.53689 | 13182 ft | 285 kts | 186° |
| 2026-05-05 05:47 | 49.72563 | 8.53408 | 13430 ft | 308 kts | 186° |
| 2026-05-05 05:47 | 49.70355 | 8.53113 | 13652 ft | 330 kts | 186° |
| 2026-05-05 05:47 | 49.68031 | 8.52806 | 14012 ft | 344 kts | 186° |
| 2026-05-05 05:47 | 49.65628 | 8.52493 | 14748 ft | 347 kts | 186° |
| 2026-05-05 05:48 | 49.63220 | 8.52179 | 15481 ft | 349 kts | 186° |
| 2026-05-05 05:48 | 49.60790 | 8.51860 | 16189 ft | 352 kts | 186° |
| 2026-05-05 05:48 | 49.58336 | 8.51538 | 16893 ft | 355 kts | 186° |
| 2026-05-05 05:48 | 49.55864 | 8.51212 | 17596 ft | 358 kts | 186° |
| 2026-05-05 05:49 | 49.53368 | 8.50884 | 18271 ft | 361 kts | 186° |
| 2026-05-05 05:49 | 49.50855 | 8.50553 | 18864 ft | 364 kts | 186° |
| 2026-05-05 05:49 | 49.48315 | 8.50220 | 19443 ft | 367 kts | 186° |
| 2026-05-05 05:49 | 49.45764 | 8.49885 | 20021 ft | 371 kts | 186° |
| 2026-05-05 05:50 | 49.43180 | 8.49547 | 20597 ft | 374 kts | 186° |
| 2026-05-05 05:50 | 49.40572 | 8.49206 | 21158 ft | 378 kts | 186° |
| 2026-05-05 05:50 | 49.37941 | 8.48862 | 21727 ft | 381 kts | 186° |
| 2026-05-05 05:50 | 49.35288 | 8.48515 | 22288 ft | 384 kts | 186° |
| 2026-05-05 05:51 | 49.32614 | 8.48166 | 22838 ft | 388 kts | 186° |
| 2026-05-05 05:51 | 49.29911 | 8.47814 | 23387 ft | 391 kts | 186° |
| 2026-05-05 05:51 | 49.27193 | 8.47462 | 23866 ft | 394 kts | 186° |
| 2026-05-05 05:51 | 49.24459 | 8.47106 | 24372 ft | 395 kts | 186° |
| 2026-05-05 05:52 | 49.21705 | 8.46747 | 24851 ft | 397 kts | 186° |
| 2026-05-05 05:52 | 49.18946 | 8.46388 | 25314 ft | 399 kts | 186° |
| 2026-05-05 05:52 | 49.16170 | 8.46026 | 25775 ft | 401 kts | 186° |
| 2026-05-05 05:52 | 49.13388 | 8.45665 | 26221 ft | 403 kts | 186° |
| 2026-05-05 05:53 | 49.10583 | 8.45301 | 26652 ft | 405 kts | 186° |
| 2026-05-05 05:53 | 49.07765 | 8.44934 | 27070 ft | 407 kts | 187° |
| 2026-05-05 05:53 | 49.04965 | 8.44297 | 27469 ft | 408 kts | 193° |
| 2026-05-05 05:53 | 49.02185 | 8.43324 | 27860 ft | 410 kts | 194° |
| 2026-05-05 05:54 | 48.99399 | 8.42339 | 28267 ft | 412 kts | 194° |
| 2026-05-05 05:54 | 48.96601 | 8.41356 | 28658 ft | 414 kts | 194° |
| 2026-05-05 05:54 | 48.93786 | 8.40374 | 29035 ft | 416 kts | 194° |
| 2026-05-05 05:54 | 48.90961 | 8.39391 | 29403 ft | 417 kts | 194° |
| 2026-05-05 05:55 | 48.88124 | 8.38407 | 29767 ft | 419 kts | 194° |
| 2026-05-05 05:55 | 48.85281 | 8.37422 | 30109 ft | 421 kts | 194° |
| 2026-05-05 05:55 | 48.82421 | 8.36433 | 30444 ft | 422 kts | 194° |
| 2026-05-05 05:55 | 48.79555 | 8.35442 | 30802 ft | 423 kts | 194° |
| 2026-05-05 05:56 | 48.76692 | 8.34440 | 31171 ft | 422 kts | 195° |
| 2026-05-05 05:56 | 48.73838 | 8.33398 | 31616 ft | 420 kts | 195° |
| 2026-05-05 05:56 | 48.71007 | 8.32353 | 32081 ft | 418 kts | 195° |
| 2026-05-05 05:56 | 48.68185 | 8.31313 | 32503 ft | 416 kts | 195° |
| 2026-05-05 05:57 | 48.65420 | 8.30300 | 32918 ft | 414 kts | 195° |
| 2026-05-05 05:57 | 48.62588 | 8.29266 | 33331 ft | 412 kts | 195° |
| 2026-05-05 05:57 | 48.59852 | 8.28270 | 33748 ft | 409 kts | 195° |
| 2026-05-05 05:57 | 48.57089 | 8.27267 | 34091 ft | 408 kts | 195° |
| 2026-05-05 05:58 | 48.54293 | 8.26252 | 34336 ft | 408 kts | 195° |
| 2026-05-05 05:58 | 48.51575 | 8.25267 | 34557 ft | 408 kts | 195° |
| 2026-05-05 05:58 | 48.48806 | 8.24265 | 34784 ft | 409 kts | 195° |
| 2026-05-05 05:58 | 48.46035 | 8.23257 | 35008 ft | 409 kts | 195° |
| 2026-05-05 05:59 | 48.43270 | 8.22245 | 35230 ft | 409 kts | 195° |
| 2026-05-05 05:59 | 48.40501 | 8.21231 | 35442 ft | 410 kts | 195° |
| 2026-05-05 05:59 | 48.37728 | 8.20217 | 35639 ft | 411 kts | 195° |
| 2026-05-05 05:59 | 48.34950 | 8.19203 | 35839 ft | 411 kts | 195° |
| 2026-05-05 06:00 | 48.32165 | 8.18189 | 36031 ft | 411 kts | 195° |
| 2026-05-05 06:00 | 48.29384 | 8.17178 | 36217 ft | 412 kts | 194° |
| 2026-05-05 06:00 | 48.26602 | 8.16135 | 36399 ft | 412 kts | 197° |
| 2026-05-05 06:00 | 48.23883 | 8.14770 | 36562 ft | 412 kts | 202° |
| 2026-05-05 06:01 | 48.21273 | 8.13016 | 36741 ft | 412 kts | 207° |
| 2026-05-05 06:01 | 48.18709 | 8.11090 | 36889 ft | 413 kts | 206° |
| 2026-05-05 06:01 | 48.13551 | 8.07249 | 36902 ft | 412 kts | 206° |
| 2026-05-05 06:02 | 48.08407 | 8.03450 | 36894 ft | 413 kts | 206° |
| 2026-05-05 06:02 | 48.03270 | 7.99670 | 36894 ft | 413 kts | 206° |
| 2026-05-05 06:03 | 47.98108 | 7.95880 | 36895 ft | 413 kts | 206° |
| 2026-05-05 06:03 | 47.92943 | 7.92096 | 36893 ft | 413 kts | 206° |
| 2026-05-05 06:04 | 47.87786 | 7.88326 | 36889 ft | 413 kts | 206° |
| 2026-05-05 06:04 | 47.82629 | 7.84563 | 36892 ft | 413 kts | 206° |
| 2026-05-05 06:05 | 47.77469 | 7.80807 | 36894 ft | 413 kts | 206° |
| 2026-05-05 06:05 | 47.72302 | 7.77056 | 36892 ft | 413 kts | 206° |
| 2026-05-05 06:06 | 47.67134 | 7.73311 | 36896 ft | 414 kts | 206° |
| 2026-05-05 06:06 | 47.61997 | 7.69597 | 36902 ft | 414 kts | 206° |
| 2026-05-05 06:07 | 47.56779 | 7.65834 | 36905 ft | 414 kts | 206° |
| 2026-05-05 06:07 | 47.51774 | 7.62231 | 36910 ft | 414 kts | 206° |
| 2026-05-05 06:08 | 47.46724 | 7.58605 | 36914 ft | 401 kts | 206° |
| 2026-05-05 06:08 | 47.41675 | 7.54987 | 36909 ft | 405 kts | 206° |
| 2026-05-05 06:09 | 47.37432 | 7.51952 | 36929 ft | 404 kts | 206° |
| 2026-05-05 06:09 | 47.32370 | 7.48338 | 36933 ft | 404 kts | 206° |
| 2026-05-05 06:10 | 47.27331 | 7.44749 | 36936 ft | 404 kts | 206° |
| 2026-05-05 06:10 | 47.22282 | 7.41160 | 36939 ft | 403 kts | 206° |
| 2026-05-05 06:11 | 47.17506 | 7.36962 | 36938 ft | 403 kts | 217° |
| 2026-05-05 06:11 | 47.13408 | 7.31367 | 36938 ft | 404 kts | 228° |
| 2026-05-05 06:12 | 47.09909 | 7.24922 | 36932 ft | 404 kts | 230° |
| 2026-05-05 06:12 | 47.06415 | 7.18471 | 36927 ft | 403 kts | 230° |
| 2026-05-05 06:13 | 47.02927 | 7.12070 | 36927 ft | 403 kts | 230° |
| 2026-05-05 06:13 | 46.99419 | 7.05652 | 36930 ft | 402 kts | 229° |
| 2026-05-05 06:14 | 46.95920 | 6.99265 | 36930 ft | 402 kts | 229° |
| 2026-05-05 06:14 | 46.92417 | 6.92884 | 36933 ft | 402 kts | 229° |
| 2026-05-05 06:15 | 46.88915 | 6.86527 | 36933 ft | 402 kts | 229° |
| 2026-05-05 06:15 | 46.85400 | 6.80169 | 36936 ft | 402 kts | 229° |
| 2026-05-05 06:16 | 46.81887 | 6.73826 | 36932 ft | 402 kts | 229° |
| 2026-05-05 06:16 | 46.78367 | 6.67486 | 36929 ft | 402 kts | 229° |
| 2026-05-05 06:17 | 46.74846 | 6.61159 | 36929 ft | 402 kts | 229° |
| 2026-05-05 06:17 | 46.71320 | 6.54839 | 36924 ft | 402 kts | 229° |
| 2026-05-05 06:18 | 46.67793 | 6.48530 | 36915 ft | 402 kts | 229° |
| 2026-05-05 06:18 | 46.64256 | 6.42218 | 36924 ft | 403 kts | 229° |
| 2026-05-05 06:19 | 46.60718 | 6.35919 | 36933 ft | 405 kts | 229° |
| 2026-05-05 06:19 | 46.57147 | 6.29575 | 36943 ft | 406 kts | 229° |
| 2026-05-05 06:20 | 46.53569 | 6.23234 | 36944 ft | 406 kts | 229° |
| 2026-05-05 06:20 | 46.49988 | 6.16901 | 36942 ft | 406 kts | 229° |
| 2026-05-05 06:21 | 46.46393 | 6.10559 | 36943 ft | 407 kts | 229° |
| 2026-05-05 06:21 | 46.42803 | 6.04239 | 36933 ft | 405 kts | 229° |
| 2026-05-05 06:22 | 46.39224 | 5.97953 | 36919 ft | 403 kts | 229° |
| 2026-05-05 06:22 | 46.35661 | 5.91710 | 36906 ft | 402 kts | 229° |
| 2026-05-05 06:23 | 46.32127 | 5.85532 | 36904 ft | 401 kts | 228° |
| 2026-05-05 06:23 | 46.28544 | 5.79282 | 36891 ft | 400 kts | 228° |
| 2026-05-05 06:24 | 46.24994 | 5.73102 | 36868 ft | 399 kts | 228° |
| 2026-05-05 06:24 | 46.21446 | 5.66941 | 36866 ft | 399 kts | 228° |
| 2026-05-05 06:25 | 46.17915 | 5.60822 | 36897 ft | 392 kts | 228° |
| 2026-05-05 06:25 | 46.14457 | 5.54766 | 36904 ft | 392 kts | 232° |
| 2026-05-05 06:26 | 46.11342 | 5.48280 | 36897 ft | 393 kts | 233° |
| 2026-05-05 06:26 | 46.08244 | 5.41790 | 36897 ft | 393 kts | 233° |
| 2026-05-05 06:27 | 46.03572 | 5.32071 | 36893 ft | 393 kts | 233° |
| 2026-05-05 06:28 | 46.00474 | 5.25652 | 36887 ft | 393 kts | 233° |
| 2026-05-05 06:28 | 45.97351 | 5.19196 | 36888 ft | 394 kts | 233° |
| 2026-05-05 06:29 | 45.94210 | 5.12717 | 36891 ft | 396 kts | 233° |
| 2026-05-05 06:29 | 45.91059 | 5.06232 | 36896 ft | 396 kts | 233° |
| 2026-05-05 06:30 | 45.87906 | 4.99758 | 36913 ft | 395 kts | 233° |
| 2026-05-05 06:30 | 45.84755 | 4.93300 | 36918 ft | 395 kts | 233° |
| 2026-05-05 06:31 | 45.81604 | 4.86859 | 36906 ft | 394 kts | 233° |
| 2026-05-05 06:31 | 45.78494 | 4.80518 | 36919 ft | 394 kts | 233° |
| 2026-05-05 06:32 | 45.75300 | 4.74020 | 36903 ft | 394 kts | 233° |
| 2026-05-05 06:32 | 45.72142 | 4.67607 | 36890 ft | 394 kts | 233° |
| 2026-05-05 06:33 | 45.68993 | 4.61224 | 36887 ft | 393 kts | 233° |
| 2026-05-05 06:33 | 45.65827 | 4.54825 | 36874 ft | 394 kts | 233° |
| 2026-05-05 06:34 | 45.62664 | 4.48445 | 36873 ft | 394 kts | 232° |
| 2026-05-05 06:34 | 45.59491 | 4.42057 | 36876 ft | 394 kts | 232° |
| 2026-05-05 06:35 | 45.56333 | 4.35715 | 36881 ft | 395 kts | 232° |
| 2026-05-05 06:35 | 45.53173 | 4.29380 | 36881 ft | 384 kts | 232° |
| 2026-05-05 06:36 | 45.50096 | 4.23229 | 36886 ft | 383 kts | 232° |
| 2026-05-05 06:36 | 45.46991 | 4.17045 | 36884 ft | 383 kts | 232° |
| 2026-05-05 06:37 | 45.43890 | 4.10878 | 36885 ft | 383 kts | 232° |
| 2026-05-05 06:37 | 45.40784 | 4.04714 | 36883 ft | 383 kts | 232° |
| 2026-05-05 06:38 | 45.37677 | 3.98562 | 36888 ft | 383 kts | 232° |
| 2026-05-05 06:38 | 45.34561 | 3.92405 | 36895 ft | 384 kts | 232° |
| 2026-05-05 06:39 | 45.31436 | 3.86243 | 36901 ft | 384 kts | 232° |
| 2026-05-05 06:39 | 45.28315 | 3.80104 | 36903 ft | 384 kts | 232° |
| 2026-05-05 06:40 | 45.25188 | 3.73961 | 36899 ft | 384 kts | 232° |
| 2026-05-05 06:40 | 45.22131 | 3.67759 | 36900 ft | 384 kts | 233° |
| 2026-05-05 06:41 | 45.19092 | 3.61551 | 36894 ft | 383 kts | 233° |
| 2026-05-05 06:41 | 45.16034 | 3.55347 | 36894 ft | 383 kts | 233° |
| 2026-05-05 06:42 | 45.12977 | 3.49169 | 36891 ft | 383 kts | 233° |
| 2026-05-05 06:42 | 45.09917 | 3.42999 | 36892 ft | 383 kts | 233° |
| 2026-05-05 06:43 | 45.06855 | 3.36838 | 36890 ft | 383 kts | 233° |
| 2026-05-05 06:43 | 45.03794 | 3.30693 | 36889 ft | 382 kts | 233° |
| 2026-05-05 06:44 | 45.00727 | 3.24550 | 36885 ft | 382 kts | 233° |
| 2026-05-05 06:44 | 44.97656 | 3.18410 | 36888 ft | 383 kts | 233° |
| 2026-05-05 06:45 | 44.94579 | 3.12272 | 36894 ft | 383 kts | 233° |
| 2026-05-05 06:45 | 44.91516 | 3.06174 | 36897 ft | 383 kts | 233° |
| 2026-05-05 06:46 | 44.88427 | 3.00039 | 36900 ft | 384 kts | 233° |
| 2026-05-05 06:46 | 44.85335 | 2.93911 | 36908 ft | 384 kts | 233° |
| 2026-05-05 06:47 | 44.82332 | 2.87653 | 36912 ft | 387 kts | 236° |
| 2026-05-05 06:47 | 44.79402 | 2.81168 | 36926 ft | 397 kts | 236° |
| 2026-05-05 06:48 | 44.76369 | 2.74544 | 36931 ft | 408 kts | 235° |
| 2026-05-05 06:48 | 44.73244 | 2.67782 | 36932 ft | 417 kts | 235° |
| 2026-05-05 06:49 | 44.70052 | 2.60899 | 36936 ft | 419 kts | 235° |
| 2026-05-05 06:49 | 44.66874 | 2.54059 | 36935 ft | 418 kts | 235° |
| 2026-05-05 06:50 | 44.63692 | 2.47228 | 36932 ft | 418 kts | 235° |
| 2026-05-05 06:50 | 44.60505 | 2.40404 | 36936 ft | 418 kts | 235° |
| 2026-05-05 06:51 | 44.57313 | 2.33585 | 36940 ft | 418 kts | 235° |
| 2026-05-05 06:51 | 44.54110 | 2.26758 | 36944 ft | 419 kts | 235° |
| 2026-05-05 06:52 | 44.50907 | 2.19948 | 36942 ft | 419 kts | 235° |
| 2026-05-05 06:52 | 44.47695 | 2.13136 | 36946 ft | 419 kts | 235° |
| 2026-05-05 06:53 | 44.44480 | 2.06333 | 36945 ft | 419 kts | 235° |
| 2026-05-05 06:53 | 44.41262 | 1.99538 | 36948 ft | 419 kts | 235° |
| 2026-05-05 06:54 | 44.38039 | 1.92750 | 36954 ft | 419 kts | 235° |
| 2026-05-05 06:54 | 44.34811 | 1.85968 | 36955 ft | 419 kts | 235° |
| 2026-05-05 06:55 | 44.31603 | 1.79241 | 36955 ft | 419 kts | 235° |
| 2026-05-05 06:55 | 44.28380 | 1.72468 | 36959 ft | 419 kts | 236° |
| 2026-05-05 06:56 | 44.25245 | 1.65616 | 36959 ft | 419 kts | 236° |
| 2026-05-05 06:56 | 44.22114 | 1.58764 | 36961 ft | 419 kts | 236° |
| 2026-05-05 06:57 | 44.18968 | 1.51930 | 36953 ft | 419 kts | 236° |
| 2026-05-05 06:57 | 44.15816 | 1.45107 | 36963 ft | 419 kts | 236° |
| 2026-05-05 06:58 | 44.12659 | 1.38292 | 36968 ft | 419 kts | 236° |
| 2026-05-05 06:58 | 44.10030 | 1.32630 | 36961 ft | 419 kts | 236° |
| 2026-05-05 06:59 | 44.06862 | 1.25819 | 36972 ft | 419 kts | 236° |
| 2026-05-05 06:59 | 44.03694 | 1.19024 | 36966 ft | 419 kts | 236° |
| 2026-05-05 07:00 | 44.00521 | 1.12235 | 36968 ft | 419 kts | 236° |
| 2026-05-05 07:00 | 43.97345 | 1.05454 | 36967 ft | 419 kts | 236° |
| 2026-05-05 07:01 | 43.94166 | 0.98685 | 36974 ft | 418 kts | 236° |
| 2026-05-05 07:01 | 43.90981 | 0.91937 | 36972 ft | 418 kts | 234° |
| 2026-05-05 07:02 | 43.87334 | 0.85673 | 36971 ft | 417 kts | 226° |
| 2026-05-05 07:02 | 43.83082 | 0.80200 | 36969 ft | 418 kts | 222° |
| 2026-05-05 07:03 | 43.78738 | 0.74852 | 36968 ft | 418 kts | 222° |
| 2026-05-05 07:03 | 43.74434 | 0.69543 | 36975 ft | 418 kts | 222° |
| 2026-05-05 07:04 | 43.70066 | 0.64167 | 36976 ft | 417 kts | 222° |
| 2026-05-05 07:04 | 43.65816 | 0.58949 | 36971 ft | 417 kts | 222° |
| 2026-05-05 07:05 | 43.61412 | 0.53552 | 36973 ft | 417 kts | 222° |
| 2026-05-05 07:05 | 43.57071 | 0.48243 | 36973 ft | 417 kts | 222° |
| 2026-05-05 07:06 | 43.52754 | 0.42974 | 36976 ft | 417 kts | 222° |
| 2026-05-05 07:06 | 43.48410 | 0.37683 | 36976 ft | 417 kts | 222° |
| 2026-05-05 07:07 | 43.44067 | 0.32403 | 36974 ft | 417 kts | 222° |
| 2026-05-05 07:07 | 43.39724 | 0.27134 | 36982 ft | 416 kts | 222° |
| 2026-05-05 07:08 | 43.35375 | 0.21872 | 36989 ft | 416 kts | 222° |
| 2026-05-05 07:08 | 43.31030 | 0.16624 | 36989 ft | 416 kts | 222° |
| 2026-05-05 07:09 | 43.26681 | 0.11382 | 36991 ft | 415 kts | 222° |
| 2026-05-05 07:09 | 43.22340 | 0.06160 | 36996 ft | 415 kts | 222° |
| 2026-05-05 07:10 | 43.18001 | 0.00950 | 36994 ft | 415 kts | 222° |
| 2026-05-05 07:10 | 43.13657 | -0.04255 | 36994 ft | 414 kts | 223° |
| 2026-05-05 07:11 | 43.09319 | -0.09443 | 36993 ft | 414 kts | 223° |
| 2026-05-05 07:11 | 43.04979 | -0.14624 | 36991 ft | 414 kts | 223° |
| 2026-05-05 07:12 | 43.00672 | -0.19755 | 36991 ft | 414 kts | 223° |
| 2026-05-05 07:12 | 42.96329 | -0.24918 | 36981 ft | 413 kts | 223° |
| 2026-05-05 07:13 | 42.91968 | -0.30094 | 36982 ft | 412 kts | 223° |
| 2026-05-05 07:13 | 42.87639 | -0.35220 | 36962 ft | 412 kts | 223° |
| 2026-05-05 07:14 | 42.83285 | -0.40215 | 36975 ft | 413 kts | 219° |
| 2026-05-05 07:14 | 42.78433 | -0.44418 | 36976 ft | 415 kts | 211° |
| 2026-05-05 07:15 | 42.73129 | -0.47572 | 36982 ft | 417 kts | 204° |
| 2026-05-05 07:15 | 42.67702 | -0.50403 | 36985 ft | 418 kts | 205° |
| 2026-05-05 07:16 | 42.62279 | -0.53250 | 36989 ft | 418 kts | 205° |
| 2026-05-05 07:16 | 42.56849 | -0.56099 | 36986 ft | 417 kts | 205° |
| 2026-05-05 07:17 | 42.51450 | -0.58925 | 36986 ft | 416 kts | 205° |
| 2026-05-05 07:17 | 42.46043 | -0.61751 | 36988 ft | 416 kts | 205° |
| 2026-05-05 07:18 | 42.40653 | -0.64562 | 36983 ft | 415 kts | 205° |
| 2026-05-05 07:18 | 42.35251 | -0.67374 | 36983 ft | 415 kts | 205° |
| 2026-05-05 07:19 | 42.29861 | -0.70174 | 36989 ft | 415 kts | 205° |
| 2026-05-05 07:19 | 42.24478 | -0.72967 | 36990 ft | 414 kts | 205° |
| 2026-05-05 07:20 | 42.19094 | -0.75753 | 36989 ft | 414 kts | 205° |
| 2026-05-05 07:20 | 42.13723 | -0.78529 | 36991 ft | 413 kts | 205° |
| 2026-05-05 07:21 | 42.08400 | -0.81274 | 36989 ft | 412 kts | 205° |
| 2026-05-05 07:21 | 42.03004 | -0.84053 | 36988 ft | 412 kts | 205° |
| 2026-05-05 07:22 | 41.97659 | -0.86800 | 36986 ft | 411 kts | 205° |
| 2026-05-05 07:22 | 41.92353 | -0.89522 | 36985 ft | 411 kts | 205° |
| 2026-05-05 07:23 | 41.87016 | -0.92255 | 36986 ft | 411 kts | 205° |
| 2026-05-05 07:23 | 41.81679 | -0.94983 | 36987 ft | 410 kts | 206° |
| 2026-05-05 07:24 | 41.76345 | -0.97705 | 36989 ft | 410 kts | 206° |
| 2026-05-05 07:24 | 41.71010 | -1.00422 | 36991 ft | 410 kts | 206° |
| 2026-05-05 07:25 | 41.65792 | -1.03430 | 36993 ft | 406 kts | 212° |
| 2026-05-05 07:25 | 41.61041 | -1.07400 | 36994 ft | 402 kts | 218° |
| 2026-05-05 07:26 | 41.56447 | -1.11660 | 36994 ft | 402 kts | 218° |
| 2026-05-05 07:26 | 41.51842 | -1.15892 | 36992 ft | 402 kts | 218° |
| 2026-05-05 07:27 | 41.47228 | -1.20118 | 36996 ft | 402 kts | 218° |
| 2026-05-05 07:27 | 41.42613 | -1.24335 | 36991 ft | 402 kts | 218° |
| 2026-05-05 07:28 | 41.37996 | -1.28548 | 36999 ft | 402 kts | 218° |
| 2026-05-05 07:28 | 41.33385 | -1.32749 | 36997 ft | 401 kts | 218° |
| 2026-05-05 07:29 | 41.28833 | -1.36888 | 36993 ft | 399 kts | 218° |
| 2026-05-05 07:29 | 41.24252 | -1.41050 | 36989 ft | 399 kts | 218° |
| 2026-05-05 07:30 | 41.19666 | -1.45214 | 36994 ft | 398 kts | 219° |
| 2026-05-05 07:30 | 41.12801 | -1.51427 | 36991 ft | 398 kts | 219° |
| 2026-05-05 07:31 | 41.08234 | -1.55550 | 36992 ft | 397 kts | 219° |
| 2026-05-05 07:31 | 41.03671 | -1.59665 | 37004 ft | 397 kts | 219° |
| 2026-05-05 07:32 | 40.99109 | -1.63770 | 36989 ft | 396 kts | 219° |
| 2026-05-05 07:32 | 40.94545 | -1.67870 | 36987 ft | 396 kts | 219° |
| 2026-05-05 07:33 | 40.89979 | -1.71965 | 36995 ft | 396 kts | 219° |
| 2026-05-05 07:33 | 40.85416 | -1.76051 | 36987 ft | 396 kts | 219° |
| 2026-05-05 07:34 | 40.80847 | -1.80135 | 36994 ft | 397 kts | 219° |
| 2026-05-05 07:34 | 40.76308 | -1.84186 | 36996 ft | 397 kts | 219° |
| 2026-05-05 07:35 | 40.71734 | -1.88256 | 36992 ft | 397 kts | 219° |
| 2026-05-05 07:35 | 40.67161 | -1.92319 | 36999 ft | 396 kts | 219° |
| 2026-05-05 07:36 | 40.62593 | -1.96370 | 36992 ft | 396 kts | 219° |
| 2026-05-05 07:36 | 40.58018 | -2.00424 | 36991 ft | 396 kts | 219° |
| 2026-05-05 07:37 | 40.53444 | -2.04468 | 36995 ft | 396 kts | 219° |
| 2026-05-05 07:37 | 40.48866 | -2.08508 | 36987 ft | 396 kts | 219° |
| 2026-05-05 07:38 | 40.44298 | -2.12533 | 36991 ft | 396 kts | 219° |
| 2026-05-05 07:38 | 40.39735 | -2.16546 | 36979 ft | 394 kts | 219° |
| 2026-05-05 07:39 | 40.35170 | -2.20557 | 36977 ft | 395 kts | 219° |
| 2026-05-05 07:39 | 40.30606 | -2.24559 | 36990 ft | 394 kts | 219° |
| 2026-05-05 07:40 | 40.26049 | -2.28550 | 36984 ft | 395 kts | 219° |
| 2026-05-05 07:40 | 40.21482 | -2.32543 | 36986 ft | 395 kts | 219° |
| 2026-05-05 07:41 | 40.16918 | -2.36526 | 36986 ft | 394 kts | 219° |
| 2026-05-05 07:41 | 40.12356 | -2.40501 | 36986 ft | 394 kts | 219° |
| 2026-05-05 07:42 | 40.07817 | -2.44450 | 36986 ft | 394 kts | 219° |
| 2026-05-05 07:42 | 40.03248 | -2.48417 | 36993 ft | 394 kts | 218° |
| 2026-05-05 07:43 | 39.98686 | -2.52373 | 36994 ft | 394 kts | 218° |
| 2026-05-05 07:43 | 39.94119 | -2.56327 | 36997 ft | 394 kts | 218° |
| 2026-05-05 07:44 | 39.89551 | -2.60274 | 37000 ft | 394 kts | 218° |
| 2026-05-05 07:44 | 39.84985 | -2.64214 | 36999 ft | 394 kts | 218° |
| 2026-05-05 07:45 | 39.80421 | -2.68145 | 36999 ft | 393 kts | 218° |
| 2026-05-05 07:45 | 39.75861 | -2.72067 | 37000 ft | 393 kts | 218° |
| 2026-05-05 07:46 | 39.71301 | -2.75982 | 37003 ft | 393 kts | 218° |
| 2026-05-05 07:46 | 39.66745 | -2.79888 | 37008 ft | 392 kts | 218° |
| 2026-05-05 07:47 | 39.62957 | -2.83131 | 37006 ft | 392 kts | 219° |
| 2026-05-05 07:47 | 39.58370 | -2.87054 | 37005 ft | 392 kts | 219° |
| 2026-05-05 07:48 | 39.53819 | -2.90939 | 37006 ft | 392 kts | 219° |
| 2026-05-05 07:48 | 39.49259 | -2.94826 | 37010 ft | 392 kts | 219° |
| 2026-05-05 07:49 | 39.44705 | -2.98701 | 37010 ft | 392 kts | 219° |
| 2026-05-05 07:49 | 39.40050 | -3.02392 | 37010 ft | 395 kts | 213° |
| 2026-05-05 07:50 | 39.34962 | -3.05219 | 37010 ft | 401 kts | 207° |
| 2026-05-05 07:50 | 39.29776 | -3.07716 | 37006 ft | 400 kts | 207° |
| 2026-05-05 07:51 | 39.24569 | -3.10243 | 37002 ft | 400 kts | 208° |
| 2026-05-05 07:51 | 39.19368 | -3.12768 | 37007 ft | 399 kts | 208° |
| 2026-05-05 07:52 | 39.14165 | -3.15290 | 37009 ft | 399 kts | 208° |
| 2026-05-05 07:52 | 39.08963 | -3.17807 | 37015 ft | 399 kts | 208° |
| 2026-05-05 07:53 | 39.03754 | -3.20323 | 37013 ft | 400 kts | 208° |
| 2026-05-05 07:53 | 38.98545 | -3.22835 | 37011 ft | 400 kts | 208° |
| 2026-05-05 07:54 | 38.93334 | -3.25343 | 37015 ft | 400 kts | 208° |
| 2026-05-05 07:54 | 38.88118 | -3.27851 | 37015 ft | 400 kts | 208° |
| 2026-05-05 07:55 | 38.82898 | -3.30356 | 37017 ft | 400 kts | 208° |
| 2026-05-05 07:55 | 38.77680 | -3.32857 | 37013 ft | 400 kts | 208° |
| 2026-05-05 07:56 | 38.72455 | -3.35356 | 37011 ft | 401 kts | 208° |
| 2026-05-05 07:56 | 38.67233 | -3.37850 | 37011 ft | 401 kts | 208° |
| 2026-05-05 07:57 | 38.62002 | -3.40345 | 37012 ft | 401 kts | 208° |
| 2026-05-05 07:57 | 38.56767 | -3.42838 | 37016 ft | 402 kts | 208° |
| 2026-05-05 07:58 | 38.51525 | -3.45330 | 37018 ft | 402 kts | 208° |
| 2026-05-05 07:58 | 38.46282 | -3.47818 | 37021 ft | 402 kts | 208° |
| 2026-05-05 07:59 | 38.41065 | -3.50291 | 37023 ft | 403 kts | 208° |
| 2026-05-05 07:59 | 38.35810 | -3.52778 | 37028 ft | 403 kts | 208° |
| 2026-05-05 08:00 | 38.30514 | -3.55281 | 37028 ft | 404 kts | 208° |
| 2026-05-05 08:00 | 38.25239 | -3.57769 | 37023 ft | 404 kts | 208° |
| 2026-05-05 08:01 | 38.19964 | -3.60253 | 37036 ft | 404 kts | 208° |
| 2026-05-05 08:01 | 38.14735 | -3.62752 | 37041 ft | 402 kts | 210° |
| 2026-05-05 08:02 | 38.09633 | -3.65644 | 37035 ft | 402 kts | 211° |
| 2026-05-05 08:02 | 38.04535 | -3.68541 | 37036 ft | 402 kts | 211° |
| 2026-05-05 08:03 | 37.99429 | -3.71430 | 37038 ft | 402 kts | 211° |
| 2026-05-05 08:03 | 37.94324 | -3.74312 | 37040 ft | 402 kts | 211° |
| 2026-05-05 08:04 | 37.89221 | -3.77190 | 37040 ft | 402 kts | 211° |
| 2026-05-05 08:04 | 37.84113 | -3.80065 | 37035 ft | 401 kts | 211° |
| 2026-05-05 08:05 | 37.79016 | -3.82930 | 37033 ft | 401 kts | 210° |
| 2026-05-05 08:05 | 37.73927 | -3.85786 | 37034 ft | 400 kts | 210° |
| 2026-05-05 08:06 | 37.68832 | -3.88642 | 37033 ft | 401 kts | 210° |
| 2026-05-05 08:06 | 37.63738 | -3.91492 | 37034 ft | 400 kts | 210° |
| 2026-05-05 08:07 | 37.58646 | -3.94337 | 37029 ft | 401 kts | 210° |
| 2026-05-05 08:07 | 37.53552 | -3.97178 | 37030 ft | 400 kts | 210° |
| 2026-05-05 08:08 | 37.48462 | -4.00012 | 37027 ft | 399 kts | 210° |
| 2026-05-05 08:08 | 37.43377 | -4.02842 | 37029 ft | 400 kts | 210° |
| 2026-05-05 08:09 | 37.38284 | -4.05670 | 37033 ft | 400 kts | 210° |
| 2026-05-05 08:09 | 37.33182 | -4.08499 | 37037 ft | 401 kts | 210° |
| 2026-05-05 08:10 | 37.28075 | -4.11327 | 37039 ft | 401 kts | 210° |
| 2026-05-05 08:10 | 37.22960 | -4.14154 | 37043 ft | 401 kts | 210° |
| 2026-05-05 08:11 | 37.17847 | -4.16977 | 37040 ft | 402 kts | 210° |
| 2026-05-05 08:11 | 37.12719 | -4.19803 | 37042 ft | 403 kts | 210° |
| 2026-05-05 08:12 | 37.07582 | -4.22631 | 37044 ft | 404 kts | 210° |
| 2026-05-05 08:12 | 37.02447 | -4.25452 | 37020 ft | 401 kts | 210° |
| 2026-05-05 08:13 | 36.97334 | -4.28259 | 37023 ft | 403 kts | 210° |
| 2026-05-05 08:13 | 36.92198 | -4.31073 | 37024 ft | 403 kts | 210° |
| 2026-05-05 08:14 | 36.87064 | -4.33881 | 37015 ft | 403 kts | 210° |
| 2026-05-05 08:14 | 36.81925 | -4.36762 | 37032 ft | 404 kts | 213° |
| 2026-05-05 08:15 | 36.77148 | -4.40343 | 37030 ft | 400 kts | 218° |
| 2026-05-05 08:15 | 36.72509 | -4.44056 | 37027 ft | 400 kts | 218° |
| 2026-05-05 08:16 | 36.67809 | -4.47793 | 37024 ft | 400 kts | 217° |
| 2026-05-05 08:16 | 36.63121 | -4.51512 | 37019 ft | 399 kts | 217° |
| 2026-05-05 08:17 | 36.58436 | -4.55222 | 37013 ft | 399 kts | 217° |
| 2026-05-05 08:17 | 36.53753 | -4.58927 | 37017 ft | 399 kts | 217° |
| 2026-05-05 08:18 | 36.49062 | -4.62632 | 37012 ft | 399 kts | 217° |
| 2026-05-05 08:18 | 36.44374 | -4.66329 | 37009 ft | 399 kts | 217° |
| 2026-05-05 08:19 | 36.39685 | -4.70022 | 37001 ft | 399 kts | 217° |
| 2026-05-05 08:19 | 36.34993 | -4.73712 | 37004 ft | 400 kts | 217° |
| 2026-05-05 08:20 | 36.30290 | -4.77405 | 37004 ft | 400 kts | 217° |
| 2026-05-05 08:20 | 36.25579 | -4.81099 | 37006 ft | 401 kts | 217° |
| 2026-05-05 08:21 | 36.20857 | -4.84796 | 37011 ft | 402 kts | 217° |
| 2026-05-05 08:21 | 36.16128 | -4.88493 | 37013 ft | 403 kts | 217° |
| 2026-05-05 08:22 | 36.11394 | -4.92216 | 37021 ft | 403 kts | 217° |
| 2026-05-05 08:22 | 36.06668 | -4.95967 | 37028 ft | 404 kts | 217° |
| 2026-05-05 08:23 | 36.01923 | -4.99721 | 37024 ft | 405 kts | 217° |
| 2026-05-05 08:23 | 35.97168 | -5.03474 | 37032 ft | 406 kts | 217° |
| 2026-05-05 08:24 | 35.92400 | -5.07231 | 37051 ft | 407 kts | 217° |
| 2026-05-05 08:24 | 35.87622 | -5.10990 | 37052 ft | 408 kts | 217° |
| 2026-05-05 08:25 | 35.82835 | -5.14750 | 37043 ft | 408 kts | 217° |
| 2026-05-05 08:25 | 35.77971 | -5.18401 | 37055 ft | 410 kts | 215° |
| 2026-05-05 08:26 | 35.73082 | -5.22006 | 37031 ft | 410 kts | 216° |
| 2026-05-05 08:26 | 35.68199 | -5.25624 | 37031 ft | 410 kts | 216° |
| 2026-05-05 08:27 | 35.63349 | -5.29222 | 37031 ft | 410 kts | 216° |
| 2026-05-05 08:27 | 35.58531 | -5.32949 | 37026 ft | 407 kts | 220° |
| 2026-05-05 08:28 | 35.53951 | -5.37041 | 37024 ft | 407 kts | 220° |
| 2026-05-05 08:28 | 35.49364 | -5.41121 | 37029 ft | 408 kts | 220° |
| 2026-05-05 08:29 | 35.44761 | -5.45202 | 37035 ft | 408 kts | 220° |
| 2026-05-05 08:30 | 35.37865 | -5.51306 | 37036 ft | 407 kts | 220° |
| 2026-05-05 08:30 | 35.33275 | -5.55362 | 37036 ft | 407 kts | 220° |
| 2026-05-05 08:31 | 35.28682 | -5.59415 | 37044 ft | 407 kts | 220° |
| 2026-05-05 08:31 | 35.24089 | -5.63462 | 37045 ft | 407 kts | 220° |
| 2026-05-05 08:32 | 35.19500 | -5.67499 | 37043 ft | 406 kts | 220° |
| 2026-05-05 08:32 | 35.14914 | -5.71528 | 37046 ft | 406 kts | 220° |
| 2026-05-05 08:33 | 35.11094 | -5.74879 | 37044 ft | 407 kts | 219° |
| 2026-05-05 08:33 | 35.06496 | -5.78909 | 37050 ft | 407 kts | 219° |
| 2026-05-05 08:34 | 35.01888 | -5.82941 | 37054 ft | 408 kts | 219° |
| 2026-05-05 08:34 | 34.97274 | -5.86973 | 37062 ft | 408 kts | 219° |
| 2026-05-05 08:35 | 34.92650 | -5.91007 | 37062 ft | 409 kts | 219° |
| 2026-05-05 08:35 | 34.88129 | -5.95193 | 37065 ft | 407 kts | 223° |
| 2026-05-05 08:36 | 34.83738 | -5.99572 | 37068 ft | 408 kts | 223° |
| 2026-05-05 08:36 | 34.79341 | -6.03939 | 37072 ft | 408 kts | 223° |
| 2026-05-05 08:37 | 34.74942 | -6.08297 | 37080 ft | 408 kts | 223° |
| 2026-05-05 08:37 | 34.70536 | -6.12655 | 37080 ft | 408 kts | 223° |
| 2026-05-05 08:38 | 34.66134 | -6.17004 | 37079 ft | 408 kts | 223° |
| 2026-05-05 08:38 | 34.61726 | -6.21352 | 37081 ft | 407 kts | 223° |
| 2026-05-05 08:39 | 34.57330 | -6.25682 | 37079 ft | 407 kts | 223° |
| 2026-05-05 08:39 | 34.52895 | -6.29950 | 37077 ft | 408 kts | 219° |
| 2026-05-05 08:40 | 34.47949 | -6.33403 | 37074 ft | 413 kts | 209° |
| 2026-05-05 08:40 | 34.42527 | -6.35714 | 37069 ft | 418 kts | 201° |
| 2026-05-05 08:41 | 34.36939 | -6.37656 | 37066 ft | 418 kts | 202° |
| 2026-05-05 08:41 | 34.31363 | -6.39613 | 37066 ft | 417 kts | 202° |
| 2026-05-05 08:42 | 34.25785 | -6.41570 | 37063 ft | 417 kts | 202° |
| 2026-05-05 08:42 | 34.20219 | -6.43518 | 37063 ft | 416 kts | 202° |
| 2026-05-05 08:43 | 34.14658 | -6.45462 | 37038 ft | 415 kts | 202° |
| 2026-05-05 08:43 | 34.11891 | -6.46427 | 36706 ft | 414 kts | 202° |
| 2026-05-05 08:43 | 34.09124 | -6.47394 | 36090 ft | 414 kts | 202° |
| 2026-05-05 08:43 | 34.06351 | -6.48363 | 35343 ft | 416 kts | 201° |
| 2026-05-05 08:44 | 34.03560 | -6.49338 | 34584 ft | 419 kts | 201° |
| 2026-05-05 08:44 | 34.00755 | -6.50333 | 33782 ft | 420 kts | 204° |
| 2026-05-05 08:44 | 33.98067 | -6.51688 | 32892 ft | 418 kts | 212° |
| 2026-05-05 08:44 | 33.95602 | -6.53524 | 31943 ft | 418 kts | 220° |
| 2026-05-05 08:45 | 33.93395 | -6.55807 | 30967 ft | 420 kts | 227° |
| 2026-05-05 08:45 | 33.91303 | -6.58295 | 30029 ft | 425 kts | 226° |
| 2026-05-05 08:45 | 33.89197 | -6.60781 | 29260 ft | 423 kts | 226° |
| 2026-05-05 08:45 | 33.87108 | -6.63234 | 28657 ft | 417 kts | 226° |
| 2026-05-05 08:46 | 33.85038 | -6.65658 | 28024 ft | 413 kts | 226° |
| 2026-05-05 08:46 | 33.82990 | -6.68054 | 27394 ft | 409 kts | 226° |
| 2026-05-05 08:46 | 33.80960 | -6.70427 | 26775 ft | 405 kts | 226° |
| 2026-05-05 08:46 | 33.78952 | -6.72774 | 26185 ft | 401 kts | 226° |
| 2026-05-05 08:47 | 33.76962 | -6.75099 | 25596 ft | 397 kts | 226° |
| 2026-05-05 08:47 | 33.74989 | -6.77401 | 25014 ft | 394 kts | 226° |
| 2026-05-05 08:47 | 33.73038 | -6.79676 | 24430 ft | 391 kts | 226° |
| 2026-05-05 08:47 | 33.71099 | -6.81937 | 23882 ft | 387 kts | 226° |
| 2026-05-05 08:48 | 33.69173 | -6.84181 | 23264 ft | 384 kts | 226° |
| 2026-05-05 08:48 | 33.67264 | -6.86399 | 22659 ft | 380 kts | 225° |
| 2026-05-05 08:48 | 33.65200 | -6.88387 | 22039 ft | 380 kts | 217° |
| 2026-05-05 08:48 | 33.62906 | -6.89953 | 21448 ft | 380 kts | 208° |
| 2026-05-05 08:49 | 33.60436 | -6.91080 | 20862 ft | 380 kts | 202° |
| 2026-05-05 08:49 | 33.57931 | -6.92052 | 20278 ft | 377 kts | 202° |
| 2026-05-05 08:49 | 33.55452 | -6.93027 | 19735 ft | 374 kts | 202° |
| 2026-05-05 08:49 | 33.52992 | -6.93999 | 19185 ft | 370 kts | 202° |
| 2026-05-05 08:50 | 33.50554 | -6.94963 | 18653 ft | 367 kts | 202° |
| 2026-05-05 08:50 | 33.48141 | -6.95918 | 18111 ft | 364 kts | 202° |
| 2026-05-05 08:50 | 33.45744 | -6.96865 | 17507 ft | 361 kts | 202° |
| 2026-05-05 08:50 | 33.43365 | -6.97806 | 16920 ft | 359 kts | 202° |
| 2026-05-05 08:51 | 33.41003 | -6.98739 | 16361 ft | 356 kts | 202° |
| 2026-05-05 08:51 | 33.38659 | -6.99664 | 15794 ft | 354 kts | 202° |
| 2026-05-05 08:51 | 33.36333 | -7.00580 | 15269 ft | 351 kts | 201° |
| 2026-05-05 08:51 | 33.34022 | -7.01490 | 14740 ft | 348 kts | 201° |
| 2026-05-05 08:52 | 33.31726 | -7.02393 | 14222 ft | 346 kts | 201° |
| 2026-05-05 08:52 | 33.29449 | -7.03290 | 13699 ft | 344 kts | 201° |
| 2026-05-05 08:52 | 33.27183 | -7.04180 | 13130 ft | 341 kts | 201° |
| 2026-05-05 08:52 | 33.24931 | -7.05065 | 12556 ft | 340 kts | 201° |
| 2026-05-05 08:53 | 33.22693 | -7.05944 | 12001 ft | 338 kts | 201° |
| 2026-05-05 08:53 | 33.20528 | -7.06970 | 11474 ft | 332 kts | 213° |
| 2026-05-05 08:53 | 33.18810 | -7.08748 | 10930 ft | 326 kts | 234° |
| 2026-05-05 08:53 | 33.17780 | -7.11111 | 10446 ft | 320 kts | 255° |
| 2026-05-05 08:54 | 33.17363 | -7.13662 | 10284 ft | 306 kts | 260° |
| 2026-05-05 08:54 | 33.16990 | -7.16109 | 10179 ft | 293 kts | 260° |
| 2026-05-05 08:54 | 33.16627 | -7.18439 | 10070 ft | 280 kts | 260° |
| 2026-05-05 08:54 | 33.16279 | -7.20659 | 9793 ft | 273 kts | 260° |
| 2026-05-05 08:55 | 33.15927 | -7.22911 | 9376 ft | 272 kts | 260° |
| 2026-05-05 08:55 | 33.15581 | -7.25126 | 8942 ft | 271 kts | 260° |
| 2026-05-05 08:55 | 33.15241 | -7.27305 | 8533 ft | 270 kts | 260° |
| 2026-05-05 08:55 | 33.14893 | -7.29529 | 8122 ft | 269 kts | 260° |
| 2026-05-05 08:56 | 33.14550 | -7.31716 | 7730 ft | 268 kts | 259° |
| 2026-05-05 08:56 | 33.14213 | -7.33869 | 7335 ft | 267 kts | 259° |
| 2026-05-05 08:56 | 33.13872 | -7.36042 | 6951 ft | 266 kts | 259° |
| 2026-05-05 08:56 | 33.13531 | -7.38206 | 6574 ft | 265 kts | 259° |
| 2026-05-05 08:57 | 33.13193 | -7.40355 | 6205 ft | 263 kts | 259° |
| 2026-05-05 08:57 | 33.12855 | -7.42492 | 5784 ft | 263 kts | 259° |
| 2026-05-05 08:57 | 33.12517 | -7.44631 | 5404 ft | 262 kts | 259° |
| 2026-05-05 08:57 | 33.12186 | -7.46766 | 4954 ft | 263 kts | 262° |
| 2026-05-05 08:58 | 33.12354 | -7.48927 | 4475 ft | 264 kts | 293° |
| 2026-05-05 08:58 | 33.13451 | -7.50608 | 4307 ft | 260 kts | 323° |
| 2026-05-05 08:58 | 33.15033 | -7.51677 | 4201 ft | 259 kts | 338° |
| 2026-05-05 08:58 | 33.16693 | -7.52362 | 4078 ft | 247 kts | 344° |
| 2026-05-05 08:59 | 33.18316 | -7.52897 | 3969 ft | 237 kts | 345° |
| 2026-05-05 08:59 | 33.19874 | -7.53434 | 3729 ft | 227 kts | 346° |
| 2026-05-05 08:59 | 33.21329 | -7.53931 | 3466 ft | 208 kts | 346° |
| 2026-05-05 08:59 | 33.22664 | -7.54389 | 3222 ft | 191 kts | 346° |
| 2026-05-05 09:00 | 33.23872 | -7.54802 | 2991 ft | 172 kts | 346° |
| 2026-05-05 09:00 | 33.24979 | -7.55181 | 2771 ft | 159 kts | 346° |
| 2026-05-05 09:00 | 33.26002 | -7.55532 | 2565 ft | 148 kts | 347° |
| 2026-05-05 09:00 | 33.26961 | -7.55860 | 2375 ft | 139 kts | 347° |
| 2026-05-05 09:01 | 33.27846 | -7.56163 | 2181 ft | 125 kts | 348° |
| 2026-05-05 09:01 | 33.28699 | -7.56453 | 2020 ft | 130 kts | 348° |
| 2026-05-05 09:01 | 33.29560 | -7.56749 | 1841 ft | 126 kts | 348° |
| 2026-05-05 09:01 | 33.30158 | -7.56954 | 1733 ft | 127 kts | 347° |
| 2026-05-05 09:02 | 33.30164 | -7.56956 | 1731 ft | 127 kts | 347° |
| 2026-05-05 09:02 | 33.31010 | -7.57247 | 1547 ft | 126 kts | 347° |
| 2026-05-05 09:02 | 33.31851 | -7.57534 | 1370 ft | 128 kts | 347° |
| 2026-05-05 09:02 | 33.32703 | -7.57826 | 1196 ft | 129 kts | 349° |
| 2026-05-05 09:03 | 33.33557 | -7.58120 | 1026 ft | 130 kts | 349° |
| 2026-05-05 09:03 | 33.34418 | -7.58416 | 845 ft | 130 kts | 348° |
| 2026-05-05 09:03 | 33.35299 | -7.58716 | 679 ft | 131 kts | 348° |
| 2026-05-05 09:03 | 33.36073 | -7.58973 | 659 ft | 90 kts | 344° |
| 2026-05-05 09:04 | 33.36372 | -7.59075 | 659 ft | 12 kts | 351° |
| 2026-05-05 09:04 | 33.36448 | -7.59082 | 657 ft | 11 kts | 0° |
| 2026-05-05 09:04 | 33.36592 | -7.59054 | 660 ft | 24 kts | 14° |
| 2026-05-05 09:04 | 33.36665 | -7.59032 | 656 ft | 0 kts | 14° |
| 2026-05-05 09:05 | 33.36668 | -7.59031 | 655 ft | 3 kts | 14° |
| 2026-05-05 09:05 | 33.36743 | -7.59008 | 656 ft | 20 kts | 17° |
| 2026-05-05 09:06 | 33.36788 | -7.58900 | 656 ft | 15 kts | 74° |
| 2026-05-05 09:06 | 33.36817 | -7.58777 | 656 ft | 16 kts | 74° |
| 2026-05-05 09:06 | 33.36827 | -7.58737 | 655 ft | 16 kts | 74° |
| 2026-05-05 09:06 | 33.36853 | -7.58628 | 656 ft | 18 kts | 74° |
| 2026-05-05 09:07 | 33.36886 | -7.58482 | 657 ft | 19 kts | 73° |
| 2026-05-05 09:07 | 33.36923 | -7.58328 | 655 ft | 20 kts | 74° |
| 2026-05-05 09:07 | 33.36976 | -7.58232 | 655 ft | 13 kts | 360° |
| 2026-05-05 09:07 | 33.37069 | -7.58260 | 654 ft | 13 kts | 344° |
| 2026-05-05 09:08 | 33.37152 | -7.58288 | 652 ft | 11 kts | 344° |
| 2026-05-05 09:08 | 33.37220 | -7.58310 | 652 ft | 11 kts | 344° |
| 2026-05-05 09:08 | 33.37296 | -7.58339 | 652 ft | 10 kts | 340° |
| 2026-05-05 09:08 | 33.37327 | -7.58351 | 652 ft | 1 kts | 354° |
| 2026-05-05 09:09 | 33.37342 | -7.58334 | 651 ft | 5 kts | 64° |
| 2026-05-05 09:09 | 33.37346 | -7.58283 | 651 ft | 1 kts | 86° |
| 2026-05-05 09:09 | 33.37347 | -7.58267 | 651 ft | 0 kts | 86° |
| 2026-05-05 09:12 | 33.31333 | -7.57357 | 1459 ft | 127 kts | 347° |
| 2026-05-05 09:12 | 33.32186 | -7.57649 | 1281 ft | 126 kts | 347° |